Time;durP1;ratioP1;P1;durP2;ratioP2;P2;SDS_P1;SDS_P2;PMS_P1;PMS_P2;Temp;Humidity;BMP_temperature;BMP_pressure;BME280_temperature;BME280_humidity;BME280_pressure;Samples;Min_cycle;Max_cycle;Signal;HPM_P1;HPM_P2
2021/10/05 00:01:49;;;;;;;26.73;19.20;;;;;;;12.21;100.00;99045.82;2272769;78;20996;-84
2021/10/05 00:04:50;;;;;;;28.75;20.75;;;;;;;12.19;100.00;99046.51;2288346;77;21015;-83
2021/10/05 00:07:51;;;;;;;26.10;20.23;;;;;;;12.16;100.00;99043.75;2273286;77;21503;-83
2021/10/05 00:10:52;;;;;;;27.42;19.57;;;;;;;12.12;100.00;99034.59;2272729;78;20968;-83
2021/10/05 00:13:53;;;;;;;27.27;19.95;;;;;;;12.09;100.00;99036.28;2281562;77;20952;-83
2021/10/05 00:16:54;;;;;;;28.02;21.70;;;;;;;12.03;100.00;99032.25;2314895;77;20973;-83
2021/10/05 00:19:54;;;;;;;27.58;20.68;;;;;;;11.95;100.00;99027.39;2314694;77;21111;-83
2021/10/05 00:22:57;;;;;;;40.40;21.95;;;;;;;11.92;100.00;99030.89;2314736;77;20945;-83
2021/10/05 00:25:58;;;;;;;29.60;20.82;;;;;;;11.85;100.00;99028.66;2277017;77;21036;-83
2021/10/05 00:28:58;;;;;;;29.82;20.65;;;;;;;11.79;100.00;99027.53;2272542;78;21511;-83
2021/10/05 00:31:59;;;;;;;32.83;22.93;;;;;;;11.78;100.00;99019.84;2272513;78;20977;-83
2021/10/05 00:35:00;;;;;;;30.72;22.30;;;;;;;11.75;100.00;99015.78;2296246;77;20917;-84
2021/10/05 00:38:01;;;;;;;30.02;22.75;;;;;;;11.73;100.00;99023.52;2314303;77;21004;-83
2021/10/05 00:41:03;;;;;;;36.38;26.30;;;;;;;11.72;100.00;99018.77;2314510;77;21035;-84
2021/10/05 00:44:04;;;;;;;36.63;26.15;;;;;;;11.71;100.00;99010.59;2304682;77;21004;-84
2021/10/05 00:47:05;;;;;;;29.37;24.32;;;;;;;11.74;100.00;99014.66;2272514;78;21036;-83
2021/10/05 00:50:06;;;;;;;30.02;22.80;;;;;;;11.73;100.00;99007.78;2272800;78;20976;-82
2021/10/05 00:53:07;;;;;;;25.57;19.45;;;;;;;11.71;100.00;99011.08;2272984;78;21011;-83
2021/10/05 00:56:08;;;;;;;34.95;25.20;;;;;;;11.71;100.00;99007.97;2313719;77;21048;-83
2021/10/05 00:59:09;;;;;;;30.77;23.45;;;;;;;11.69;100.00;99005.99;2314695;77;20940;-83
2021/10/05 01:02:10;;;;;;;31.25;21.65;;;;;;;11.66;100.00;99007.67;2314796;77;20941;-83
2021/10/05 01:05:11;;;;;;;24.98;19.00;;;;;;;11.69;100.00;99004.18;2287749;77;20971;-84
2021/10/05 01:08:11;;;;;;;24.82;18.92;;;;;;;11.69;100.00;99009.92;2273016;78;21009;-83
2021/10/05 01:11:12;;;;;;;25.92;19.10;;;;;;;11.68;100.00;99006.49;2159056;78;21176;-85
2021/10/05 01:14:13;;;;;;;30.45;20.62;;;;;;;11.64;100.00;98999.17;2119363;84;20946;-84
2021/10/05 01:17:14;;;;;;;26.15;18.62;;;;;;;11.62;100.00;98994.11;2118904;84;21140;-85
2021/10/05 01:20:15;;;;;;;26.15;20.50;;;;;;;11.60;100.00;98993.95;2119163;84;21020;-85
2021/10/05 01:23:15;;;;;;;25.45;19.30;;;;;;;11.57;100.00;98990.39;2119176;84;21428;-85
2021/10/05 01:26:16;;;;;;;20.65;17.87;;;;;;;11.55;100.00;98989.27;2118942;84;21056;-85
2021/10/05 01:29:17;;;;;;;24.32;19.65;;;;;;;11.52;100.00;98985.69;2118945;84;21042;-85
2021/10/05 01:32:18;;;;;;;26.02;21.17;;;;;;;11.52;100.00;98986.16;2119326;84;21049;-85
2021/10/05 01:35:19;;;;;;;25.90;18.17;;;;;;;11.49;100.00;98988.66;2119045;84;21053;-85
2021/10/05 01:38:19;;;;;;;26.50;21.12;;;;;;;11.45;100.00;98991.83;2119352;84;21507;-85
2021/10/05 01:41:20;;;;;;;29.02;22.60;;;;;;;11.43;100.00;98984.14;2119142;84;21097;-85
2021/10/05 01:47:42;;;;;;;27.73;19.45;;;;;;;11.40;100.00;98971.37;2119146;84;21603;-85
2021/10/05 01:50:43;;;;;;;27.95;20.45;;;;;;;11.41;100.00;98975.62;2119145;84;21580;-85
2021/10/05 01:53:44;;;;;;;27.60;22.90;;;;;;;11.38;100.00;98978.61;2119098;84;21012;-84
2021/10/05 01:56:44;;;;;;;33.75;29.02;;;;;;;11.33;100.00;98971.26;2119182;84;21069;-85
2021/10/05 01:59:45;;;;;;;33.90;29.15;;;;;;;11.34;100.00;98968.98;2119236;84;20973;-84
2021/10/05 02:02:46;;;;;;;33.90;28.05;;;;;;;11.33;100.00;98973.88;2119163;84;21073;-85
2021/10/05 02:05:47;;;;;;;35.73;28.27;;;;;;;11.33;100.00;98966.52;2119285;84;21545;-84
2021/10/05 02:08:48;;;;;;;34.50;29.87;;;;;;;11.32;100.00;98972.75;2119158;84;21343;-85
2021/10/05 02:11:48;;;;;;;35.52;30.75;;;;;;;11.29;100.00;98973.93;2129887;83;21104;-85
2021/10/05 02:14:49;;;;;;;24.75;22.15;;;;;;;11.28;100.00;98971.48;2136218;83;21487;-85
2021/10/05 02:17:50;;;;;;;22.05;17.95;;;;;;;11.25;100.00;98971.36;2136068;83;21147;-85
2021/10/05 02:20:51;;;;;;;21.02;16.62;;;;;;;11.25;100.00;98973.98;2136078;83;21033;-85
2021/10/05 02:27:11;;;;;;;25.10;17.32;;;;;;;11.21;100.00;98964.02;2136408;83;21544;-85
2021/10/05 02:30:12;;;;;;;24.25;16.30;;;;;;;11.20;100.00;98971.06;2136292;83;21008;-85
2021/10/05 02:33:13;;;;;;;24.18;15.60;;;;;;;11.19;100.00;98962.88;2136366;83;21012;-84
2021/10/05 02:36:14;;;;;;;24.02;16.70;;;;;;;11.17;100.00;98965.37;2136456;83;21055;-84
2021/10/05 02:39:15;;;;;;;21.95;16.35;;;;;;;11.16;100.00;98972.42;2136350;83;21036;-84
2021/10/05 02:42:16;;;;;;;21.33;16.02;;;;;;;11.12;100.00;98965.89;2136458;83;21011;-84
2021/10/05 02:45:35;;;;;;;25.17;21.17;;;;;;;11.10;100.00;98963.45;2136131;83;21080;-84
2021/10/05 02:48:36;;;;;;;34.67;30.70;;;;;;;11.07;100.00;98965.13;2136430;83;20973;-84
2021/10/05 02:51:36;;;;;;;32.13;26.80;;;;;;;11.02;100.00;98950.91;2136358;83;21570;-84
2021/10/05 02:54:37;;;;;;;25.10;19.75;;;;;;;11.02;100.00;98950.91;2136487;83;20973;-84
2021/10/05 02:57:38;;;;;;;30.15;25.10;;;;;;;11.01;100.00;98957.14;2136373;83;21082;-84
2021/10/05 03:00:39;;;;;;;30.48;24.27;;;;;;;10.99;100.00;98949.95;2136590;83;20956;-85
2021/10/05 03:03:40;;;;;;;33.13;26.97;;;;;;;10.95;100.00;98950.78;2136370;83;21558;-85
2021/10/05 03:06:41;;;;;;;29.67;20.68;;;;;;;10.94;100.00;98952.28;2136453;83;20964;-85
2021/10/05 03:09:42;;;;;;;28.47;21.07;;;;;;;10.94;100.00;98960.14;2136010;83;21063;-85
2021/10/05 03:12:43;;;;;;;33.83;26.65;;;;;;;10.91;100.00;98952.14;2121311;83;21147;-86
2021/10/05 03:15:44;;;;;;;27.75;23.57;;;;;;;10.91;100.00;98948.21;2119136;84;21020;-86
2021/10/05 03:18:45;;;;;;;42.27;26.52;;;;;;;10.87;100.00;98946.10;2118987;84;21036;-88
2021/10/05 03:21:46;;;;;;;57.60;30.82;;;;;;;10.86;100.00;98939.23;2119138;84;21073;-85
2021/10/05 03:24:47;;;;;;;139.47;51.00;;;;;;;10.86;100.00;98931.38;2119201;84;21022;-86
2021/10/05 03:27:48;;;;;;;139.88;53.05;;;;;;;10.86;100.00;98941.36;2118754;84;21075;-86
2021/10/05 03:30:48;;;;;;;112.52;48.80;;;;;;;10.87;100.00;98939.06;2118791;84;21044;-87
2021/10/05 03:34:07;;;;;;;79.35;39.27;;;;;;;10.83;100.00;98939.11;2118646;84;21060;-87
2021/10/05 03:37:08;;;;;;;65.95;33.10;;;;;;;10.80;100.00;98925.06;2118914;84;21052;-86
2021/10/05 03:40:09;;;;;;;62.98;33.58;;;;;;;10.77;100.00;98935.37;2119126;84;21034;-87
2021/10/05 03:43:10;;;;;;;38.90;26.82;;;;;;;10.76;100.00;98921.95;2119113;84;21059;-87
2021/10/05 03:46:11;;;;;;;35.63;28.50;;;;;;;10.74;100.00;98930.98;2119081;84;21009;-87
2021/10/05 03:49:11;;;;;;;37.25;25.97;;;;;;;10.70;100.00;98924.48;2119148;84;22041;-87
2021/10/05 03:52:12;;;;;;;31.37;25.50;;;;;;;10.67;100.00;98926.94;2118979;84;21587;-87
2021/10/05 03:55:13;;;;;;;28.85;23.98;;;;;;;10.68;100.00;98921.20;2118811;83;21045;-87
2021/10/05 03:58:14;;;;;;;27.05;21.33;;;;;;;10.64;100.00;98924.67;2119054;84;20993;-87
2021/10/05 04:01:15;;;;;;;31.00;24.67;;;;;;;10.61;100.00;98921.60;2118826;84;20980;-86
2021/10/05 04:04:34;;;;;;;34.13;26.93;;;;;;;10.58;100.00;98916.69;2118657;84;21061;-87
2021/10/05 04:07:34;;;;;;;31.95;23.77;;;;;;;10.55;100.00;98919.17;2119204;84;21000;-86
2021/10/05 04:10:35;;;;;;;35.13;27.35;;;;;;;10.56;100.00;98925.22;2120039;83;21102;-86
2021/10/05 04:13:36;;;;;;;33.73;27.37;;;;;;;10.54;100.00;98928.02;2136489;83;21079;-86
2021/10/05 04:16:37;;;;;;;29.25;24.47;;;;;;;10.57;100.00;98924.23;2136461;83;20976;-87
2021/10/05 04:19:38;;;;;;;36.73;25.20;;;;;;;10.57;100.00;98928.16;2136522;83;21630;-87
2021/10/05 04:22:38;;;;;;;34.53;25.02;;;;;;;10.57;100.00;98919.81;2136582;83;21019;-87
2021/10/05 04:25:57;;;;;;;29.30;21.12;;;;;;;10.56;100.00;98919.48;2136420;83;21071;-87
2021/10/05 04:32:36;;;;;;;27.40;21.00;;;;;;;10.56;100.00;98919.48;2136634;83;21487;-86
2021/10/05 04:35:36;;;;;;;26.93;18.92;;;;;;;10.52;100.00;98911.68;2136402;83;21020;-86
2021/10/05 04:38:37;;;;;;;24.55;19.35;;;;;;;10.52;100.00;98908.56;2136247;83;21519;-86
2021/10/05 04:41:38;;;;;;;23.60;18.52;;;;;;;10.52;100.00;98919.53;2136400;83;21019;-86
2021/10/05 04:44:39;;;;;;;25.37;16.93;;;;;;;10.51;100.00;98916.10;2136526;83;21482;-86
2021/10/05 04:47:40;;;;;;;25.52;18.95;;;;;;;10.53;100.00;98912.00;2136312;83;21139;-85
2021/10/05 04:50:40;;;;;;;24.82;18.73;;;;;;;10.51;100.00;98917.41;2136512;83;21483;-85
2021/10/05 04:53:41;;;;;;;24.55;18.20;;;;;;;10.49;100.00;98910.70;2136613;83;20925;-86
2021/10/05 05:00:01;;;;;;;23.38;16.23;;;;;;;10.52;100.00;98903.83;2136521;83;21112;-85
2021/10/05 05:10:17;;;;;;;22.47;16.63;;;;;;;10.63;100.00;98914.38;2136730;83;21051;-86
2021/10/05 05:16:37;;;;;;;27.17;20.30;;;;;;;10.75;100.00;98909.04;2119631;84;20986;-88
2021/10/05 05:19:38;;;;;;;39.75;30.52;;;;;;;10.85;100.00;98912.73;2119129;84;21061;-88
2021/10/05 05:22:57;;;;;;;24.35;21.42;;;;;;;10.94;100.00;98911.17;2119156;84;21017;-86
2021/10/05 05:29:35;;;;;;;26.95;24.05;;;;;;;11.07;100.00;98921.88;2118961;84;21009;-86
2021/10/05 05:39:16;;;;;;;23.18;18.60;;;;;;;11.23;100.00;98916.97;2119132;84;21033;-90
2021/10/05 05:46:20;;;;;;;18.67;14.18;;;;;;;11.31;100.00;98923.94;2119290;84;22141;-88
2021/10/05 05:53:00;;;;;;;22.60;17.45;;;;;;;11.26;100.00;98924.49;2118817;84;21073;-86
2021/10/05 05:56:19;;;;;;;20.32;17.60;;;;;;;11.22;100.00;98915.84;2118890;84;21024;-87
2021/10/05 05:59:38;;;;;;;22.62;17.05;;;;;;;11.23;100.00;98920.08;2119120;84;21056;-87
2021/10/05 06:02:57;;;;;;;24.80;17.07;;;;;;;11.23;100.00;98924.02;2118857;84;21018;-86
2021/10/05 06:12:40;;;;;;;26.73;20.17;;;;;;;11.51;100.00;98922.91;2128269;81;21098;-87
2021/10/05 06:15:41;;;;;;;18.12;14.00;;;;;;;11.58;100.00;98927.77;2136394;83;21040;-86
2021/10/05 06:22:24;;;;;;;18.30;14.13;;;;;;;11.78;100.00;98918.34;2135910;83;21762;-86
2021/10/05 06:35:41;;;;;;;17.20;14.95;;;;;;;12.16;100.00;98913.82;2136397;83;21100;-87
2021/10/05 06:49:39;;;;;;;17.62;11.97;;;;;;;12.60;100.00;98921.23;2136401;83;21554;-86
2021/10/05 06:52:58;;;;;;;14.03;12.50;;;;;;;12.71;100.00;98910.22;2135911;83;21532;-87
2021/10/05 06:56:17;;;;;;;18.82;14.15;;;;;;;12.85;100.00;98913.78;2136075;83;21040;-86
2021/10/05 07:02:56;;;;;;;17.12;13.85;;;;;;;12.87;100.00;98903.39;2136204;83;21015;-86
2021/10/05 07:06:15;;;;;;;14.55;12.20;;;;;;;13.01;100.00;98905.64;2135672;83;21519;-87
2021/10/05 07:36:44;;;;;;;14.20;11.37;;;;;;;14.00;100.00;98892.30;2119554;84;21059;-85
2021/10/05 07:39:45;;;;;;;15.68;13.32;;;;;;;14.15;100.00;98895.06;2119399;84;20989;-87
2021/10/05 07:42:46;;;;;;;18.92;12.90;;;;;;;14.23;100.00;98890.94;2119275;84;21599;-85
2021/10/05 07:46:05;;;;;;;14.30;11.78;;;;;;;14.33;100.00;98884.47;2118742;84;21033;-86
2021/10/05 07:56:22;;;;;;;12.90;10.45;;;;;;;14.73;100.00;98873.53;2119403;84;21559;-86
2021/10/05 08:10:16;;;;;;;12.13;10.30;;;;;;;15.21;100.00;98864.87;2119327;84;21151;-85
2021/10/05 08:13:17;;;;;;;10.45;9.38;;;;;;;15.35;100.00;98864.33;2130210;83;21009;-86
2021/10/05 08:16:30;;;;;;;13.38;10.82;;;;;;;15.47;100.00;98866.66;2140687;83;21551;-85
2021/10/05 08:19:42;;;;;;;17.07;10.48;;;;;;;15.58;100.00;98863.38;2140765;83;21411;-86
2021/10/05 08:26:39;;;;;;;;;;;;;;;15.75;100.00;98868.22;2142764;83;21335;-86
2021/10/05 08:49:54;;;;;;;16.90;10.08;;;;;;;16.34;100.00;98841.50;2140268;83;21067;-85
2021/10/05 08:52:57;;;;;;;13.05;9.20;;;;;;;16.44;100.00;98844.98;2139779;83;21028;-86
2021/10/05 08:56:16;;;;;;;10.08;8.78;;;;;;;16.55;100.00;98846.12;2139704;83;21067;-85
2021/10/05 09:03:15;;;;;;;12.43;10.18;;;;;;;16.77;100.00;98844.78;2139963;83;21128;-86
2021/10/05 09:06:16;;;;;;;12.30;10.03;;;;;;;16.86;100.00;98838.70;2140428;83;21064;-85
2021/10/05 09:12:55;;;;;;;13.03;10.78;;;;;;;17.00;100.00;98839.67;2138857;83;21063;-85
2021/10/05 09:23:14;;;;;;;12.40;9.38;;;;;;;17.31;100.00;98832.16;2136210;83;21081;-86
2021/10/05 09:26:15;;;;;;;11.25;9.15;;;;;;;17.42;100.00;98835.11;2136362;83;21545;-86
2021/10/05 09:29:35;;;;;;;12.23;9.60;;;;;;;17.52;100.00;98834.87;2136186;83;21072;-85
2021/10/05 09:32:35;;;;;;;14.38;9.60;;;;;;;17.59;100.00;98834.81;2136446;83;21524;-86
2021/10/05 09:39:33;;;;;;;15.20;10.32;;;;;;;17.61;98.69;98836.20;2136536;83;21059;-86
2021/10/05 09:49:30;;;;;;;9.80;8.55;;;;;;;17.80;98.89;98838.86;2136611;83;21032;-86
2021/10/05 09:52:31;;;;;;;11.57;10.25;;;;;;;17.86;97.15;98825.54;2136704;83;21557;-86
2021/10/05 09:55:50;;;;;;;10.25;8.83;;;;;;;17.95;97.06;98827.87;2136150;83;21562;-86
2021/10/05 10:02:13;;;;;;;12.25;9.25;;;;;;;18.07;95.95;98819.45;2136217;83;21020;-87
2021/10/05 10:05:15;;;;;;;14.43;9.55;;;;;;;18.17;94.63;98822.36;2136265;83;21111;-86
2021/10/05 10:08:16;;;;;;;11.95;8.50;;;;;;;18.26;95.97;98815.70;2136436;83;21589;-87
2021/10/05 10:11:17;;;;;;;13.20;9.28;;;;;;;18.31;93.88;98814.52;2136302;83;20957;-87
2021/10/05 10:14:19;;;;;;;12.55;9.40;;;;;;;18.36;93.38;98808.53;2124893;83;21045;-85
2021/10/05 10:17:20;;;;;;;9.75;8.63;;;;;;;18.40;94.27;98804.41;2119144;84;21046;-87
2021/10/05 10:20:21;;;;;;;14.30;9.70;;;;;;;18.46;93.45;98798.98;2119131;84;21049;-86
2021/10/05 10:23:22;;;;;;;12.40;9.20;;;;;;;18.51;92.37;98792.20;2119026;83;21032;-86
2021/10/05 10:26:24;;;;;;;14.55;9.15;;;;;;;18.54;93.08;98794.38;2119245;84;20977;-87
2021/10/05 10:29:25;;;;;;;14.23;9.90;;;;;;;18.59;90.92;98789.22;2118983;84;21005;-85
2021/10/05 10:32:26;;;;;;;9.93;8.93;;;;;;;18.60;89.50;98774.40;2118734;84;21206;-85
2021/10/05 10:35:27;;;;;;;13.32;9.05;;;;;;;18.66;91.26;98782.00;2119235;84;20993;-88
2021/10/05 10:38:28;;;;;;;13.10;9.10;;;;;;;18.70;90.67;98775.18;2119023;84;21088;-86
2021/10/05 10:41:29;;;;;;;11.40;8.95;;;;;;;18.77;88.87;98776.41;2119046;84;21001;-87
2021/10/05 10:44:30;;;;;;;14.58;9.38;;;;;;;18.79;89.54;98776.45;2119128;84;21084;-86
2021/10/05 10:47:31;;;;;;;16.02;9.20;;;;;;;18.81;87.79;98776.22;2118979;84;20982;-86
2021/10/05 10:50:32;;;;;;;15.90;11.35;;;;;;;18.83;89.87;98777.59;2118977;84;21044;-86
2021/10/05 10:53:33;;;;;;;11.45;9.98;;;;;;;18.90;90.40;98780.13;2119021;84;21019;-86
2021/10/05 10:56:34;;;;;;;12.82;9.65;;;;;;;18.97;88.91;98772.87;2119122;84;21516;-86
2021/10/05 10:59:35;;;;;;;14.03;10.23;;;;;;;18.99;89.37;98778.22;2119195;84;20997;-86
2021/10/05 11:02:36;;;;;;;12.50;9.53;;;;;;;19.04;89.51;98759.77;2119686;84;21009;-86
2021/10/05 11:05:37;;;;;;;11.73;10.08;;;;;;;19.10;89.91;98758.53;2118989;84;21457;-86
2021/10/05 11:08:38;;;;;;;11.53;8.88;;;;;;;19.12;89.36;98746.67;2119092;84;21080;-86
2021/10/05 11:11:40;;;;;;;14.87;10.50;;;;;;;19.17;89.67;98758.70;2119070;84;21036;-85
2021/10/05 11:14:44;;;;;;;10.65;9.55;;;;;;;19.24;88.74;98756.73;2133601;83;21067;-86
2021/10/05 11:17:45;;;;;;;11.63;8.85;;;;;;;19.28;89.04;98753.88;2140278;83;21333;-86
2021/10/05 11:20:46;;;;;;;15.00;10.48;;;;;;;19.33;89.25;98750.02;2140395;83;21479;-86
2021/10/05 11:23:47;;;;;;;14.45;10.00;;;;;;;19.40;87.38;98737.94;2140264;83;21012;-85
2021/10/05 11:26:48;;;;;;;14.20;9.35;;;;;;;19.42;87.32;98739.84;2140235;83;20992;-86
2021/10/05 11:29:49;;;;;;;12.23;9.80;;;;;;;19.43;86.86;98723.38;2139965;82;21614;-86
2021/10/05 11:32:49;;;;;;;13.50;10.03;;;;;;;19.47;87.39;98728.48;2140010;83;21000;-86
2021/10/05 11:35:50;;;;;;;14.47;9.75;;;;;;;19.53;87.12;98727.55;2140267;83;21095;-85
2021/10/05 11:38:51;;;;;;;10.48;9.25;;;;;;;19.59;86.60;98706.20;2140298;83;20976;-87
2021/10/05 11:41:53;;;;;;;11.60;8.75;;;;;;;19.66;87.04;98716.69;2140166;83;21052;-86
2021/10/05 11:44:53;;;;;;;13.28;9.40;;;;;;;19.72;86.81;98725.02;2140156;83;21031;-86
2021/10/05 11:47:54;;;;;;;12.35;9.55;;;;;;;19.79;87.13;98698.31;2140267;83;21571;-85
2021/10/05 11:50:55;;;;;;;10.32;8.90;;;;;;;19.85;87.16;98714.11;2140170;83;21553;-86
2021/10/05 11:53:59;;;;;;;15.08;9.68;;;;;;;19.88;85.00;98702.19;2140149;83;21122;-87
2021/10/05 11:57:00;;;;;;;10.25;8.18;;;;;;;19.97;86.22;98701.28;2140174;83;21076;-85
2021/10/05 12:00:01;;;;;;;11.38;8.75;;;;;;;20.00;85.33;98691.48;2140124;83;21086;-86
2021/10/05 12:03:02;;;;;;;8.05;7.25;;;;;;;20.05;84.97;98687.07;2140391;83;22101;-86
2021/10/05 12:06:03;;;;;;;12.33;9.18;;;;;;;20.12;83.68;98689.05;2140290;83;21031;-86
2021/10/05 12:09:04;;;;;;;10.75;8.35;;;;;;;20.23;82.72;98685.22;2140333;83;21063;-87
2021/10/05 12:12:05;;;;;;;14.00;9.85;;;;;;;20.32;83.18;98700.52;2140312;83;21507;-86
2021/10/05 12:15:06;;;;;;;9.40;8.35;;;;;;;20.36;83.39;98706.14;2140021;83;21136;-86
2021/10/05 12:18:07;;;;;;;11.08;9.50;;;;;;;20.39;81.79;98701.66;2139754;83;21043;-86
2021/10/05 12:21:09;;;;;;;13.43;9.63;;;;;;;20.42;81.36;98702.00;2140076;83;21021;-86
2021/10/05 12:24:10;;;;;;;12.68;10.03;;;;;;;20.48;81.58;98701.56;2140383;83;21075;-87
2021/10/05 12:27:14;;;;;;;9.55;8.55;;;;;;;20.51;81.62;98702.42;2140323;83;21049;-87
2021/10/05 12:30:13;;;;;;;11.20;8.68;;;;;;;20.57;79.43;98691.31;2140588;82;21081;-87
2021/10/05 12:33:16;;;;;;;13.03;8.78;;;;;;;20.60;79.15;98686.33;2140537;83;21076;-87
2021/10/05 12:36:17;;;;;;;11.15;8.25;;;;;;;20.66;79.39;98677.35;2140509;83;21043;-86
2021/10/05 12:39:21;;;;;;;13.10;9.75;;;;;;;20.68;78.14;98678.46;2140372;83;21031;-86
2021/10/05 12:42:21;;;;;;;10.48;9.25;;;;;;;20.75;78.10;98676.41;2140407;83;20976;-86
2021/10/05 12:45:22;;;;;;;10.58;9.48;;;;;;;20.79;78.68;98672.22;2140173;83;21667;-86
2021/10/05 12:48:23;;;;;;;12.58;8.70;;;;;;;20.83;79.26;98676.52;2140110;83;21032;-86
2021/10/05 12:51:25;;;;;;;13.35;9.13;;;;;;;20.89;77.55;98668.35;2140137;83;21135;-86
2021/10/05 12:54:26;;;;;;;11.75;9.03;;;;;;;20.91;78.35;98670.77;2140108;83;21043;-86
2021/10/05 12:57:26;;;;;;;13.90;10.70;;;;;;;20.92;77.03;98657.73;2140256;83;21056;-86
2021/10/05 13:00:27;;;;;;;13.50;10.03;;;;;;;20.94;77.33;98671.09;2140162;83;20973;-89
2021/10/05 13:03:28;;;;;;;13.70;10.50;;;;;;;20.97;77.11;98664.46;2140433;83;20976;-87
2021/10/05 13:06:29;;;;;;;15.03;10.65;;;;;;;20.99;76.31;98672.47;2140321;83;21786;-87
2021/10/05 13:09:30;;;;;;;14.87;8.95;;;;;;;21.02;75.04;98657.84;2140274;83;21107;-87
2021/10/05 13:12:31;;;;;;;12.47;10.48;;;;;;;21.08;76.26;98664.05;2140215;83;21505;-88
2021/10/05 13:15:32;;;;;;;11.83;10.05;;;;;;;21.11;75.98;98659.02;2137245;83;21567;-87
2021/10/05 13:18:33;;;;;;;10.50;9.30;;;;;;;21.12;76.31;98661.16;2136349;83;21091;-87
2021/10/05 13:21:34;;;;;;;13.60;10.23;;;;;;;21.13;77.19;98653.47;2136423;83;21096;-87
2021/10/05 13:24:34;;;;;;;13.95;10.28;;;;;;;21.15;75.37;98648.70;2136428;83;21100;-87
2021/10/05 13:27:35;;;;;;;16.93;10.35;;;;;;;21.16;74.92;98633.00;2136460;83;21016;-87
2021/10/05 13:30:36;;;;;;;11.73;10.23;;;;;;;21.18;74.87;98635.68;2136435;83;21059;-87
2021/10/05 13:33:38;;;;;;;15.20;10.30;;;;;;;21.18;74.81;98627.69;2136260;83;21023;-86
2021/10/05 13:36:39;;;;;;;13.45;10.00;;;;;;;21.20;75.16;98622.91;2136267;83;21100;-87
2021/10/05 13:39:40;;;;;;;14.73;10.43;;;;;;;21.21;74.67;98619.73;2136276;83;21248;-87
2021/10/05 13:42:41;;;;;;;16.50;10.23;;;;;;;21.22;74.59;98613.37;2136416;83;21503;-87
2021/10/05 13:45:42;;;;;;;12.70;10.53;;;;;;;21.21;74.45;98609.91;2136303;83;21026;-87
2021/10/05 13:48:43;;;;;;;11.57;10.38;;;;;;;21.22;73.47;98614.17;2136134;83;21535;-87
2021/10/05 13:51:44;;;;;;;15.05;10.95;;;;;;;21.24;74.24;98608.59;2136159;83;21008;-87
2021/10/05 13:54:45;;;;;;;14.80;11.10;;;;;;;21.21;73.83;98601.92;2136383;83;21518;-87
2021/10/05 13:57:45;;;;;;;14.95;10.85;;;;;;;21.22;74.86;98606.19;2136300;83;21068;-87
2021/10/05 14:00:46;;;;;;;12.30;10.40;;;;;;;21.20;74.28;98602.95;2136488;83;21023;-87
2021/10/05 14:03:47;;;;;;;11.85;10.63;;;;;;;21.19;74.26;98612.52;2136004;83;20988;-87
2021/10/05 14:06:48;;;;;;;11.63;9.48;;;;;;;21.18;74.77;98593.09;2135960;83;21032;-87
2021/10/05 14:09:51;;;;;;;14.45;10.28;;;;;;;21.15;73.08;98590.94;2136058;83;21567;-87
2021/10/05 14:12:52;;;;;;;10.90;9.70;;;;;;;21.16;73.02;98596.53;2135826;83;21086;-87
2021/10/05 14:15:53;;;;;;;13.62;10.10;;;;;;;21.17;73.78;98604.80;2121908;83;21532;-87
2021/10/05 14:18:54;;;;;;;13.58;9.98;;;;;;;21.15;73.32;98608.77;2118771;84;20998;-87
2021/10/05 14:21:54;;;;;;;15.08;10.63;;;;;;;21.11;73.68;98599.13;2119094;84;21051;-87
2021/10/05 14:24:55;;;;;;;12.33;10.05;;;;;;;21.08;73.96;98610.81;2119092;84;20977;-87
2021/10/05 14:27:56;;;;;;;10.75;8.68;;;;;;;21.07;73.19;98605.22;2119105;84;20977;-87
2021/10/05 14:30:57;;;;;;;13.50;9.58;;;;;;;21.01;73.48;98614.46;2118925;84;21013;-87
2021/10/05 14:33:58;;;;;;;12.43;9.48;;;;;;;20.99;73.45;98602.47;2118929;84;20993;-87
2021/10/05 14:36:59;;;;;;;9.83;8.83;;;;;;;20.92;72.13;98597.33;2118527;84;21000;-87
2021/10/05 14:40:00;;;;;;;11.65;9.38;;;;;;;20.90;72.74;98606.63;2118609;83;21024;-86
2021/10/05 14:43:00;;;;;;;11.08;8.45;;;;;;;20.85;72.87;98606.05;2118442;84;21132;-87
2021/10/05 14:46:01;;;;;;;12.93;8.68;;;;;;;20.78;71.51;98601.44;2118645;83;21073;-87
2021/10/05 14:49:02;;;;;;;9.08;7.97;;;;;;;20.76;72.22;98602.72;2119112;84;21052;-87
2021/10/05 14:52:03;;;;;;;9.38;8.40;;;;;;;20.71;72.66;98607.47;2118886;84;21057;-87
2021/10/05 14:55:04;;;;;;;14.95;9.05;;;;;;;20.63;72.56;98598.58;2119190;84;21024;-87
2021/10/05 14:58:04;;;;;;;9.63;8.25;;;;;;;20.57;72.67;98618.17;2119051;84;20993;-87
2021/10/05 15:01:07;;;;;;;10.38;7.87;;;;;;;20.51;72.79;98609.34;2119095;84;21505;-88
2021/10/05 15:04:08;;;;;;;13.45;9.20;;;;;;;20.34;72.00;98598.72;2119169;83;21553;-88
2021/10/05 15:07:09;;;;;;;16.02;8.28;;;;;;;20.36;71.11;98618.41;2119137;84;21036;-88
2021/10/05 15:10:10;;;;;;;11.80;7.65;;;;;;;20.31;71.46;98610.38;2119108;83;20981;-87
2021/10/05 15:13:11;;;;;;;8.88;7.60;;;;;;;20.23;71.06;98608.94;2119586;84;21624;-87
2021/10/05 15:16:12;;;;;;;10.48;7.83;;;;;;;20.16;71.69;98615.74;2118806;83;21022;-87
2021/10/05 15:19:13;;;;;;;11.00;8.53;;;;;;;20.10;71.77;98617.23;2118942;84;21076;-87
2021/10/05 15:22:13;;;;;;;12.95;8.38;;;;;;;20.01;71.69;98606.20;2119152;84;21029;-88
2021/10/05 15:25:14;;;;;;;10.98;8.43;;;;;;;19.96;72.40;98609.33;2119167;83;21121;-88
2021/10/05 15:28:15;;;;;;;10.30;8.40;;;;;;;19.87;72.52;98617.70;2119133;84;21050;-87
2021/10/05 15:31:16;;;;;;;15.55;9.18;;;;;;;19.81;72.56;98613.87;2119169;84;21037;-87
2021/10/05 15:34:17;;;;;;;12.82;9.08;;;;;;;19.73;72.29;98616.92;2119090;84;21500;-88
2021/10/05 15:37:18;;;;;;;11.78;8.43;;;;;;;19.64;71.54;98625.80;2119051;84;21269;-88
2021/10/05 15:40:19;;;;;;;10.93;8.55;;;;;;;19.56;72.48;98615.58;2119231;84;21000;-88
2021/10/05 15:43:20;;;;;;;11.48;7.55;;;;;;;19.47;73.00;98626.27;2119240;84;21080;-87
2021/10/05 15:46:23;;;;;;;9.63;7.33;;;;;;;19.38;73.39;98623.19;2119418;84;21510;-88
2021/10/05 15:49:24;;;;;;;12.65;9.08;;;;;;;19.29;73.78;98632.09;2119562;82;21014;-87
2021/10/05 15:52:27;;;;;;;12.65;8.08;;;;;;;19.16;74.51;98638.99;2119027;84;21036;-87
2021/10/05 15:55:27;;;;;;;22.22;11.43;;;;;;;19.07;74.66;98633.78;2119165;82;21053;-87
2021/10/05 15:58:29;;;;;;;18.23;11.53;;;;;;;18.96;75.26;98634.63;2119265;84;21060;-87
2021/10/05 16:01:29;;;;;;;17.98;11.43;;;;;;;18.85;75.70;98630.17;2119149;84;21020;-87
2021/10/05 16:04:30;;;;;;;17.30;11.00;;;;;;;18.73;75.48;98632.83;2119066;84;21495;-87
2021/10/05 16:07:31;;;;;;;13.62;9.50;;;;;;;18.63;76.00;98643.19;2118960;84;21005;-87
2021/10/05 16:10:32;;;;;;;19.32;11.48;;;;;;;18.51;76.33;98649.04;2119099;84;21036;-87
2021/10/05 16:13:33;;;;;;;17.05;12.55;;;;;;;18.40;76.33;98651.47;2119038;84;21100;-87
2021/10/05 16:16:34;;;;;;;15.58;8.90;;;;;;;18.31;76.80;98632.17;2133032;83;21104;-87
2021/10/05 16:19:35;;;;;;;12.20;7.97;;;;;;;18.21;76.88;98636.73;2136583;83;20991;-87
2021/10/05 16:22:36;;;;;;;10.18;8.15;;;;;;;18.11;77.21;98634.65;2136640;83;21038;-88
2021/10/05 16:25:37;;;;;;;13.48;8.40;;;;;;;18.03;77.27;98637.64;2136655;83;20987;-86
2021/10/05 16:28:37;;;;;;;14.60;9.20;;;;;;;17.94;77.64;98632.39;2136421;83;20984;-87
2021/10/05 16:31:38;;;;;;;12.98;9.10;;;;;;;17.86;77.32;98633.52;2136460;83;21519;-86
2021/10/05 16:34:41;;;;;;;16.82;10.15;;;;;;;17.81;77.76;98639.20;2136495;83;21004;-87
2021/10/05 16:37:43;;;;;;;11.20;8.93;;;;;;;17.73;77.57;98630.27;2136548;83;20988;-87
2021/10/05 16:40:43;;;;;;;10.05;7.20;;;;;;;17.65;77.72;98628.74;2136600;83;21015;-86
2021/10/05 16:43:44;;;;;;;9.50;7.37;;;;;;;17.59;77.82;98618.53;2136359;83;20983;-86
2021/10/05 16:46:45;;;;;;;10.55;7.85;;;;;;;17.53;77.96;98630.53;2136516;83;21008;-86
2021/10/05 16:49:46;;;;;;;11.40;7.80;;;;;;;17.48;77.95;98627.78;2136484;83;21519;-86
2021/10/05 16:52:47;;;;;;;9.90;7.30;;;;;;;17.41;78.39;98623.89;2136275;83;21491;-87